To NAV CANADA Home Page Login to a new session Search on AWWS site Disclaimer Vers la page française équivalente Tips FAQ What's new on the site To the Forecasts and Observations / NOTAM section To "File a Flight Plan" website Publications and other links Update of the User's profile FIC Telephone Numbers My Weather Data Folder Route Weather Data Regional Weather Data Local Weather Data To the Forecasts and Observations / NOTAM section
Request Generated 03/18/2019 at 19:41:51 UTC . Weather information available at that time is displayed.


Go to a specific product

Save this request - Inactive

METAR/TAF

REGINA INTL/SK    

METAR CYQR 181900Z 32016KT 15SM FEW080 SCT250 03/M01 A3006 RMK AC2CI1 SLP211=
METAR CYQR 181800Z 31013KT 15SM FEW120 FEW250 03/M01 A3007 RMK AC1CI1 AC TR CI TR SLP213=
METAR CYQR 181700Z 29009KT 15SM FEW250 01/M01 A3006 RMK CI1 CI TR SLP212=

TAF CYQR 181738Z 1818/1918 30010KT P6SM FEW120 SCT250
FM182100 34012KT P6SM SCT060
FM190000 30010KT P6SM SKC
BECMG 1904/1906 22010KT
RMK NXT FCST BY 190000Z=


GRAPHICAL FA CLOUDS & WEATHER FORECASTS
To the Product Selector
Graphical FA gfacn32      

GRAPHICAL FA ICING, TURBULENCE & FREEZING LEVEL FORECASTS
To the Product Selector
Graphical FA gfacn32      

FDTEXT Low Level FD. Temperatures are not forecast for the 3,000-foot level.
To the Product Selector
STN YQR - REGINA. SASK for use 3000 6000 9000 12000 18000
FDCN01 CWAO FCST BASED ON 181200 DATA VALID 181800 17-21 3524-01 3433-09 3428-15 3332-29
FDCN02 CWAO FCST BASED ON 181200 DATA VALID 190000 21-06 0118-03 0119-09 0220-15 0347-26
FDCN03 CWAO FCST BASED ON 181200 DATA VALID 191200 06-17 3219+00 3521-04 3627-08 0339-20



Your time UTC time
Weather data provided by Environment Canada and NAV CANADA